Latest Coastal Weather Observations for Mornington Island Airport

IDQ60701

Issued at 6:51 pm EST Wednesday 10 February 2016 (issued every 10 minutes, with the page automatically refreshed every 10 minutes)

About coastal observations | Map of coastal stations | Coastal observations for QLD | Marine services | Other Formats
Station Details ID: 029182 Name: MORNINGTON ISLAND AIRPORT Lat: -16.66 Lon: 139.17 Height: 9.0 m
Data from the previous 72 hours. | See also: Recent months at Mornington Island Airport
Date/Time
EST
Temp

°C
Wind Pressure Rain
since 9am
mm
Weather Cloud Vis
km
Sea
Height
m
Swell
Dir
 
Speed
knots
Gust
knots
hPa Trend Height
m
Period
s
Dir
10/06:30pm 29.6 S 5 7 1005.3 - 12.6 - - - - - - -
10/06:00pm 29.3 SSE 4 6 1005.2 - 12.6 - - - - - - -
10/05:30pm 29.5 E 1 5 1004.7 - 12.6 - - - - - - -
10/05:00pm 28.6 ENE 6 7 1004.7 - 12.6 - - - - - - -
10/04:30pm 26.7 ESE 14 19 1005.4 - 10.0 - - - - - - -
10/04:00pm 30.6 NNE 7 13 1005.4 - 0.2 - - - - - - -
10/03:30pm 31.8 NNW 9 12 1005.1 - 0.2 - - - - - - -
10/03:00pm 32.1 NNW 10 12 1005.3 - 0.2 - - - - - - -
10/02:30pm 32.0 NNW 10 13 1005.6 - 0.2 - - - - - - -
10/02:00pm 31.9 NNW 9 12 1005.7 - 0.2 - - - - - - -
10/01:30pm 32.0 NNW 10 13 1005.9 - 0.2 - - - - - - -
10/01:00pm 31.6 NNW 9 15 1006.3 - 0.2 - - - - - - -
10/12:30pm 31.2 NNW 10 13 1006.8 - 0.2 - - - - - - -
10/12:00pm 30.8 N 7 9 1007.0 - 0.2 - - - - - - -
10/11:30am 31.2 NE 9 11 1007.4 - 0.2 - - - - - - -
10/11:00am 30.4 NE 12 16 1007.6 - 0.2 - - - - - - -
10/10:30am 29.9 ENE 10 15 1008.1 - 0.0 - - - - - - -
10/10:00am 30.1 ENE 11 15 1008.1 - 0.0 - - - - - - -
10/09:30am 28.8 ENE 12 15 1008.1 - 0.0 - - - - - - -
10/09:00am 28.0 ENE 13 16 1008.0 - 6.0 - - - - - - -
10/08:30am 28.3 ENE 12 16 1007.8 - 6.0 - - - - - - -
10/08:00am 26.9 ENE 10 13 1007.6 - 6.0 - - - - - - -
10/07:30am 26.5 E 10 13 1007.3 - 6.0 - - - - - - -
10/07:00am 26.4 ESE 8 10 1007.3 - 6.0 - - - - - - -
10/06:30am 26.3 ESE 9 13 1007.3 - 6.0 - - - - - - -
10/06:00am 26.4 ESE 8 11 1007.1 - 6.0 Recent precip. - - - - - -
10/05:30am 26.8 ESE 9 12 1006.7 - 6.0 - - - - - - -
10/05:00am 27.0 NW 2 7 1006.4 - 5.6 - - - - - - -
10/04:30am 26.9 CALM 0 0 1006.3 - 5.6 - - - - - - -
10/04:00am 27.8 SE 3 5 1006.2 - 0.0 - - - - - - -
10/03:30am 27.8 S 4 6 1006.1 - 0.0 - - - - - - -
10/03:00am 27.6 NE 3 5 1006.1 - 0.0 - - - - - - -
10/02:30am 28.1 CALM 0 0 1005.9 - 0.0 - - - - - - -
10/02:00am 28.5 WSW 1 6 1006.6 - 0.0 - - - - - - -
10/01:30am 28.5 ENE 1 5 1007.2 - 0.0 - - - - - - -
10/01:00am 28.8 E 2 3 1007.8 - 0.0 - - - - - - -
10/12:30am 29.0 ENE 4 5 1008.2 - 0.0 - - - - - - -
10/12:00am 28.9 SSE 3 3 1008.0 - 0.0 - - - - - - -
 
Date/Time
EST
Temp

°C
Wind Pressure Rain
since 9am
mm
Weather Cloud Vis
km
Sea
Height
m
Swell
Dir
 
Speed
knots
Gust
knots
hPa Trend Height
m
Period
s
Dir
09/11:30pm 28.9 NE 3 4 1008.0 - 0.0 - - - - - - -
09/11:00pm 28.9 CALM 0 0 1008.2 - 0.0 - - - - - - -
09/10:30pm 28.7 CALM 0 0 1008.0 - 0.0 - - - - - - -
09/10:00pm 28.7 CALM 0 0 1007.5 - 0.0 - - - - - - -
09/09:30pm 29.3 N 4 5 1006.9 - 0.0 - - - - - - -
09/09:00pm 29.7 N 6 7 1006.7 - 0.0 - - - - - - -
09/08:30pm 29.9 NNW 6 7 1006.6 - 0.0 - - - - - - -
09/08:00pm 29.8 N 6 8 1006.6 - 0.0 - - - - - - -
09/07:30pm 30.0 NNW 6 7 1006.6 - 0.0 - - - - - - -
09/07:00pm 30.6 N 5 7 1006.3 - 0.0 - - - - - - -
09/06:30pm 31.2 NW 7 9 1006.0 - 0.0 - - - - - - -
09/06:00pm 31.5 NW 8 9 1005.7 - 0.0 - - - - - - -
09/05:30pm 32.2 NW 7 10 1005.9 - 0.0 - - - - - - -
09/05:00pm 32.2 NW 8 10 1006.0 - 0.0 - - - - - - -
09/04:30pm 32.0 NW 9 11 1005.9 - 0.0 - - - - - - -
09/04:00pm 32.0 NNW 9 11 1006.0 - 0.0 - - - - - - -
09/03:30pm 31.5 NW 8 10 1006.3 - 0.0 - - - - - - -
09/03:00pm 32.1 NW 9 11 1006.7 - 0.0 - - - - - - -
09/02:30pm 31.6 WNW 8 11 1006.8 - 0.0 - - - - - - -
09/02:00pm 31.2 NW 10 12 1007.4 - 0.0 - - - - - - -
09/01:30pm 30.9 NW 11 13 1007.7 - 0.0 - - - - - - -
09/01:00pm 31.5 NW 7 8 1008.3 - 0.0 - - - - - - -
09/12:30pm 31.4 NW 7 8 1008.5 - 0.0 - - - - - - -
09/12:00pm 31.6 NW 8 11 1008.8 - 0.0 - - - - - - -
09/11:30am 32.5 NW 7 10 1009.1 - 0.0 - - - - - - -
09/11:00am 31.7 NNW 8 10 1009.0 - 0.0 - - - - - - -
09/10:30am 31.7 N 7 9 1009.1 - 0.0 - - - - - - -
09/10:00am 31.9 NNW 6 8 1009.1 - 0.0 - - - - - - -
09/09:30am 31.6 NNW 6 7 1008.9 - 0.0 - - - - - - -
09/09:00am 31.2 NW 5 7 1008.6 - 0.0 - - - - - - -
09/08:30am 31.1 NW 6 7 1008.3 - 0.0 - - - - - - -
09/08:00am 30.6 NW 7 9 1008.0 - 0.0 - - - - - - -
09/07:30am 30.2 WNW 7 9 1007.8 - 0.0 - - - - - - -
09/07:00am 30.1 NW 8 9 1007.3 - 0.0 - - - - - - -
09/06:30am 30.0 NW 8 10 1006.9 - 0.0 - - - - - - -
09/06:00am 29.7 NNW 6 8 1006.6 - 0.0 - - - - - - -
09/05:30am 29.8 NW 7 8 1006.3 - 0.0 - - - - - - -
09/05:00am 29.8 NNW 6 8 1005.9 - 0.0 - - - - - - -
09/04:30am 30.0 NW 7 9 1005.7 - 0.0 - - - - - - -
09/04:00am 30.0 NNW 8 10 1005.7 - 0.0 - - - - - - -
09/03:30am 29.8 NNW 8 10 1005.7 - 0.0 - - - - - - -
09/03:00am 29.8 NNW 5 6 1005.9 - 0.0 - - - - - - -
09/02:30am 29.8 N 5 7 1006.1 - 0.0 - - - - - - -
09/02:00am 29.9 NNW 5 7 1006.5 - 0.0 - - - - - - -
09/01:30am 30.0 NNW 7 8 1006.6 - 0.0 - - - - - - -
09/01:00am 29.9 N 6 8 1007.1 - 0.0 - - - - - - -
09/12:30am 30.1 NNW 7 9 1007.4 - 0.0 - - - - - - -
09/12:00am 30.0 N 9 11 1007.6 - 0.0 - - - - - - -
 
Date/Time
EST
Temp

°C
Wind Pressure Rain
since 9am
mm
Weather Cloud Vis
km
Sea
Height
m
Swell
Dir
 
Speed
knots
Gust
knots
hPa Trend Height
m
Period
s
Dir
08/11:30pm 29.9 N 8 13 1007.9 - 0.0 - - - - - - -
08/11:00pm 30.1 N 9 14 1008.0 - 0.0 - - - - - - -
08/10:30pm 30.1 N 8 11 1008.1 - 0.0 - - - - - - -
08/10:00pm 30.2 N 9 13 1008.1 - 0.0 - - - - - - -
08/09:30pm 30.1 N 7 9 1007.9 - 0.0 - - - - - - -
08/09:00pm 30.1 N 6 9 1008.0 - 0.0 - - - - - - -
08/08:30pm 30.0 NNE 5 6 1007.8 - 0.0 - - - - - - -
08/08:00pm 30.0 N 5 7 1007.6 - 0.0 - - - - - - -
08/07:30pm 30.4 NNW 7 9 1007.3 - 0.0 - - - - - - -
08/07:00pm 30.9 N 8 11 1006.9 - 0.0 - - - - - - -
08/06:30pm 31.3 NNE 8 10 1006.7 - 0.0 - - - - - - -
08/06:00pm 31.4 N 5 7 1006.6 - 0.0 - - - - - - -
08/05:30pm 31.5 NNW 7 10 1006.7 - 0.0 - - - - - - -
08/05:00pm 32.1 NNW 5 9 1006.5 - 0.0 - - - - - - -
08/04:30pm 31.4 NNW 7 9 1006.5 - 0.0 - - - - - - -
08/04:00pm 31.6 NW 7 11 1006.5 - 0.0 - - - - - - -
08/03:30pm 33.2 NW 7 10 1006.7 - 0.0 - - - - - - -
08/03:00pm 31.6 WNW 9 11 1007.0 - 0.0 - - - - - - -
08/02:30pm 31.4 WNW 7 9 1007.5 - 0.0 - - - - - - -
08/02:00pm 31.3 WNW 8 10 1007.9 - 0.0 - - - - - - -
08/01:30pm 31.4 WNW 9 11 1008.2 - 0.0 - - - - - - -
08/01:00pm 31.6 WNW 7 9 1008.5 - 0.0 - - - - - - -
08/12:30pm 32.3 WNW 7 9 1008.8 - 0.0 - - - - - - -
08/12:00pm 31.5 W 7 9 1009.0 - 0.0 - - - - - - -
08/11:30am 31.4 WNW 7 9 1009.2 - 0.0 - - - - - - -
08/11:00am 31.0 W 7 9 1009.4 - 0.0 - - - - - - -
08/10:30am 30.8 W 7 9 1009.6 - 0.0 - - - - - - -
08/10:00am 30.8 W 7 9 1009.4 - 0.0 - - - - - - -
08/09:30am 30.8 W 7 9 1009.1 - 0.0 - - - - - - -
08/09:00am 30.4 W 7 10 1009.0 - 0.0 - - - - - - -
08/08:30am 30.0 WSW 7 11 1008.9 - 0.0 - - - - - - -
08/08:00am 30.4 W 9 13 1008.5 - 0.0 - - - - - - -
08/07:30am 29.9 WNW 10 13 1008.3 - 0.0 - - - - - - -
08/07:00am 29.3 WNW 10 13 1007.6 - 0.0 - - - - - - -
08/06:30am 29.2 NW 9 12 1007.3 - 0.0 - - - - - - -
08/06:00am 29.3 NW 10 12 1007.0 - 0.0 - - - - - - -
08/05:30am 29.3 NW 10 12 1006.9 - 0.0 - - - - - - -
08/05:00am 29.1 NW 9 12 1006.9 - 0.0 - - - - - - -
08/04:30am 28.8 NNW 7 9 1006.8 - 0.0 - - - - - - -
08/04:00am 28.8 NNW 7 8 1006.9 - 0.0 - - - - - - -
08/03:30am 28.7 NNW 7 8 1006.9 - 0.0 - - - - - - -
08/03:00am 28.6 NNW 7 9 1007.0 - 0.0 - - - - - - -
08/02:30am 28.6 N 6 7 1007.1 - 0.0 - - - - - - -
08/02:00am 28.6 N 6 8 1007.5 - 0.0 - - - - - - -
08/01:30am 28.6 N 5 6 1007.9 - 0.0 - - - - - - -
08/01:00am 28.9 N 6 7 1008.1 - 0.0 - - - - - - -
08/12:30am 28.8 N 5 6 1008.4 - 0.0 - - - - - - -
08/12:00am 28.5 N 5 6 1008.6 - 0.0 - - - - - - -
 
Date/Time
EST
Temp

°C
Wind Pressure Rain
since 9am
mm
Weather Cloud Vis
km
Sea
Height
m
Swell
Dir
 
Speed
knots
Gust
knots
hPa Trend Height
m
Period
s
Dir
07/11:30pm 28.8 NNW 5 6 1008.8 - 0.0 - - - - - - -
07/11:00pm 28.7 NNW 5 6 1008.9 - 0.0 - - - - - - -
07/10:30pm 28.5 N 6 7 1008.8 - 0.0 - - - - - - -
07/10:00pm 28.8 N 6 7 1008.6 - 0.0 - - - - - - -
07/09:30pm 28.8 N 4 5 1008.4 - 0.0 - - - - - - -
07/09:00pm 29.0 N 5 5 1008.1 - 0.0 - - - - - - -
07/08:30pm 29.4 N 4 5 1007.7 - 0.0 - - - - - - -
07/08:00pm 29.5 NNW 4 5 1007.4 - 0.0 - - - - - - -
07/07:30pm 30.1 N 5 7 1006.8 - 0.0 - - - - - - -
07/07:00pm 30.8 NNW 7 10 1006.6 - 0.0 - - - - - - -

Other Formats:

Comma delimited format used in spreadsheet applications
http://www.bom.gov.au/fwo/IDQ60701/IDQ60701.94254.axf

JavaScript Object Notation format (JSON) in row-major order
http://www.bom.gov.au/fwo/IDQ60701/IDQ60701.94254.json